createdAt,value
2019-05-21T00:01:41.580Z,9.70
2019-05-21T00:04:27.145Z,9.70
2019-05-21T00:06:44.064Z,9.70
2019-05-21T00:09:14.474Z,9.70
2019-05-21T00:11:44.912Z,9.60
2019-05-21T00:14:15.545Z,9.60
2019-05-21T00:16:45.976Z,9.50
2019-05-21T00:19:16.447Z,9.50
2019-05-21T00:21:48.098Z,9.50
2019-05-21T00:24:18.734Z,9.50
2019-05-21T00:26:49.223Z,9.40
2019-05-21T00:29:55.586Z,9.40
2019-05-21T00:33:01.652Z,9.50
2019-05-21T00:36:07.813Z,9.40
2019-05-21T00:39:13.569Z,9.40
2019-05-21T00:42:01.206Z,9.30
2019-05-21T00:44:36.963Z,9.30
2019-05-21T00:47:08.814Z,9.30
2019-05-21T00:49:39.239Z,9.30
2019-05-21T00:52:09.979Z,9.30
2019-05-21T00:54:40.707Z,9.30
2019-05-21T00:57:11.766Z,9.30
2019-05-21T00:59:42.388Z,9.30
2019-05-21T01:02:12.806Z,9.20
2019-05-21T01:04:43.233Z,9.20
2019-05-21T01:07:13.661Z,9.20
2019-05-21T01:09:44.086Z,9.20
2019-05-21T01:12:14.514Z,9.20
2019-05-21T01:14:44.942Z,9.20
2019-05-21T01:17:15.370Z,9.30
2019-05-21T01:19:45.839Z,9.20
2019-05-21T01:22:16.377Z,9.20
2019-05-21T01:24:47.013Z,9.10
2019-05-21T01:27:17.484Z,9.10
2019-05-21T01:29:47.915Z,9.10
2019-05-21T01:32:18.341Z,9.10
2019-05-21T01:34:48.757Z,9.10
2019-05-21T01:37:19.193Z,9.00
2019-05-21T01:39:49.622Z,9.00
2019-05-21T01:42:20.048Z,9.00
2019-05-21T01:44:50.577Z,9.00
2019-05-21T01:47:21.014Z,9.00
2019-05-21T01:49:51.534Z,9.00
2019-05-21T01:52:21.959Z,8.90
2019-05-21T01:54:52.391Z,9.00
2019-05-21T01:57:22.963Z,8.90
2019-05-21T02:02:23.146Z,8.90
2019-05-21T02:04:53.585Z,8.60
2019-05-21T02:07:24.011Z,8.50
2019-05-21T02:09:58.270Z,8.40
2019-05-21T02:12:28.927Z,8.40
2019-05-21T02:15:00.994Z,8.40
2019-05-21T02:17:31.452Z,8.40
2019-05-21T02:20:01.930Z,8.50
2019-05-21T02:22:32.474Z,8.60
2019-05-21T02:25:02.946Z,8.60
2019-05-21T02:27:33.590Z,8.60
2019-05-21T02:30:04.967Z,8.70
2019-05-21T02:32:35.972Z,8.70
2019-05-21T02:35:06.592Z,8.60
2019-05-21T02:37:37.019Z,8.60
2019-05-21T02:40:07.753Z,8.60
2019-05-21T02:42:38.179Z,8.60
2019-05-21T02:45:09.221Z,8.60
2019-05-21T02:47:39.648Z,8.50
2019-05-21T02:50:10.283Z,8.50
2019-05-21T02:52:40.706Z,8.40
2019-05-21T02:55:11.147Z,8.30
2019-05-21T02:57:42.145Z,8.20
2019-05-21T03:00:31.655Z,8.10
2019-05-21T03:03:02.702Z,8.10
2019-05-21T03:05:33.295Z,8.00
2019-05-21T03:08:03.917Z,7.90
2019-05-21T03:10:34.380Z,7.80
2019-05-21T03:13:04.814Z,7.80
2019-05-21T03:15:35.234Z,7.80
2019-05-21T03:18:05.867Z,7.80
2019-05-21T03:20:36.498Z,7.90
2019-05-21T03:23:07.032Z,8.10
2019-05-21T03:25:37.470Z,8.30
2019-05-21T03:28:07.889Z,8.40
2019-05-21T03:30:38.380Z,8.40
2019-05-21T03:33:08.953Z,8.40
2019-05-21T03:35:39.369Z,8.40
2019-05-21T03:38:09.799Z,8.30
2019-05-21T03:40:40.231Z,8.30
2019-05-21T03:43:10.659Z,8.20
2019-05-21T03:45:41.090Z,8.20
2019-05-21T03:48:11.506Z,8.10
2019-05-21T03:50:42.033Z,8.10
2019-05-21T03:53:12.458Z,8.10
2019-05-21T03:55:42.887Z,8.10
2019-05-21T03:58:13.317Z,8.10
2019-05-21T04:00:43.738Z,8.20
2019-05-21T04:03:14.223Z,8.20
2019-05-21T04:05:44.697Z,8.20
2019-05-21T04:08:15.123Z,8.10
2019-05-21T04:10:45.554Z,8.10
2019-05-21T04:13:15.984Z,8.10
2019-05-21T04:16:08.323Z,7.90
2019-05-21T04:18:43.767Z,7.90
2019-05-21T04:21:14.334Z,7.90
2019-05-21T04:23:44.966Z,7.90
2019-05-21T04:26:15.445Z,7.90
2019-05-21T04:28:45.885Z,8.00
2019-05-21T04:31:16.311Z,8.30
2019-05-21T04:33:46.793Z,8.50
2019-05-21T04:36:17.269Z,8.60
2019-05-21T04:38:47.692Z,8.70
2019-05-21T04:41:19.148Z,8.70
2019-05-21T04:43:49.568Z,8.70
2019-05-21T04:46:19.999Z,8.70
2019-05-21T04:48:50.422Z,8.70
2019-05-21T04:51:20.851Z,8.80
2019-05-21T04:53:51.280Z,8.80
2019-05-21T04:56:21.708Z,8.90
2019-05-21T04:58:52.135Z,8.90
2019-05-21T05:01:22.557Z,9.00
2019-05-21T05:03:53.086Z,9.00
2019-05-21T05:06:23.660Z,9.00
2019-05-21T05:08:54.151Z,9.10
2019-05-21T05:11:24.572Z,9.10
2019-05-21T05:13:55.016Z,9.10
2019-05-21T05:16:25.426Z,9.10
2019-05-21T05:18:55.853Z,9.10
2019-05-21T05:21:26.324Z,9.00
2019-05-21T05:23:57.115Z,9.10
2019-05-21T05:26:27.543Z,9.10
2019-05-21T05:28:57.969Z,9.10
2019-05-21T05:31:28.399Z,9.20
2019-05-21T05:33:58.823Z,9.20
2019-05-21T05:36:29.357Z,9.20
2019-05-21T05:38:59.835Z,9.20
2019-05-21T05:41:30.311Z,9.30
2019-05-21T05:44:00.737Z,9.40
2019-05-21T05:46:31.166Z,9.50
2019-05-21T05:49:07.124Z,9.60
2019-05-21T05:51:37.550Z,9.60
2019-05-21T05:54:08.153Z,9.70
2019-05-21T05:56:38.610Z,9.80
2019-05-21T05:59:09.038Z,10.00
2019-05-21T06:01:40.604Z,10.00
2019-05-21T06:04:11.018Z,10.10
2019-05-21T06:06:41.554Z,10.20
2019-05-21T06:09:12.124Z,10.40
2019-05-21T06:11:42.600Z,10.50
2019-05-21T06:14:13.175Z,10.70
2019-05-21T06:19:13.174Z,10.90
2019-05-21T06:21:43.744Z,11.20
2019-05-21T06:24:14.376Z,11.40
2019-05-21T06:26:44.856Z,11.50
2019-05-21T06:29:15.285Z,11.60
2019-05-21T06:31:46.739Z,11.80
2019-05-21T06:34:17.167Z,11.90
2019-05-21T06:36:47.691Z,12.00
2019-05-21T06:39:18.247Z,12.10
2019-05-21T06:41:49.716Z,12.30
2019-05-21T06:44:20.204Z,12.50
2019-05-21T06:46:50.630Z,12.70
2019-05-21T07:14:17.051Z,12.80
2019-05-21T07:16:47.459Z,14.60
2019-05-21T07:19:17.890Z,14.80
2019-05-21T07:21:48.472Z,15.10
2019-05-21T07:24:19.095Z,15.20
2019-05-21T07:29:18.978Z,15.40
2019-05-21T07:31:49.414Z,15.80
2019-05-21T07:34:19.934Z,16.00
2019-05-21T07:36:50.367Z,16.30
2019-05-21T07:39:20.787Z,17.00
2019-05-21T07:41:52.237Z,17.90
2019-05-21T07:44:22.708Z,18.90
2019-05-21T07:46:53.196Z,20.00
2019-05-21T07:49:23.626Z,21.00
2019-05-21T07:51:54.089Z,22.20
2019-05-21T07:54:27.827Z,23.20
2019-05-21T07:56:56.594Z,24.10
2019-05-21T07:59:27.073Z,24.90
2019-05-21T08:01:57.498Z,24.40
2019-05-21T08:04:27.930Z,24.60
2019-05-21T08:06:58.350Z,25.00
2019-05-21T08:09:28.983Z,26.20
2019-05-21T08:11:59.410Z,27.30
2019-05-21T08:14:29.880Z,27.90
2019-05-21T08:17:00.373Z,28.40
2019-05-21T08:19:32.227Z,28.60
2019-05-21T08:22:02.706Z,27.70
2019-05-21T08:24:33.332Z,27.20
2019-05-21T08:27:03.815Z,26.50
2019-05-21T08:29:34.234Z,27.60
2019-05-21T08:32:04.671Z,29.10
2019-05-21T08:34:37.888Z,29.60
2019-05-21T08:37:08.390Z,30.50
2019-05-21T08:39:38.806Z,30.60
2019-05-21T08:42:09.306Z,31.20
2019-05-21T08:44:39.982Z,31.20
2019-05-21T08:47:10.610Z,31.80
2019-05-21T08:49:44.084Z,31.70
2019-05-21T08:52:13.103Z,31.80
2019-05-21T08:54:51.106Z,32.10
2019-05-21T08:57:21.853Z,32.30
2019-05-21T08:59:53.293Z,32.70
2019-05-21T09:02:26.969Z,32.30
2019-05-21T09:04:57.601Z,31.50
2019-05-21T09:07:28.054Z,30.20
2019-05-21T09:09:59.511Z,29.40
2019-05-21T09:12:29.934Z,28.50
2019-05-21T09:15:00.461Z,28.00
2019-05-21T09:17:31.139Z,27.50
2019-05-21T09:20:01.629Z,27.20
2019-05-21T09:22:32.127Z,27.40
2019-05-21T09:25:03.450Z,28.00
2019-05-21T09:27:34.141Z,29.10
2019-05-21T09:30:05.225Z,30.40
2019-05-21T09:32:35.703Z,30.80
2019-05-21T09:35:06.790Z,30.70
2019-05-21T09:37:37.276Z,31.10
2019-05-21T09:40:10.083Z,31.70
2019-05-21T09:42:45.528Z,30.80
2019-05-21T09:45:16.045Z,30.80
2019-05-21T09:47:46.590Z,31.70
2019-05-21T09:50:17.409Z,32.30
2019-05-21T09:52:47.814Z,32.60
2019-05-21T09:55:18.463Z,32.10
2019-05-21T09:58:10.591Z,31.90
2019-05-21T10:01:18.399Z,32.50
2019-05-21T10:03:52.250Z,32.00
2019-05-21T10:06:22.758Z,32.20
2019-05-21T10:08:53.362Z,33.50
2019-05-21T10:11:24.812Z,33.90
2019-05-21T10:13:55.242Z,32.70
2019-05-21T10:16:25.773Z,32.70
2019-05-21T10:18:56.242Z,33.70
2019-05-21T10:21:26.810Z,35.30
2019-05-21T10:23:57.299Z,33.90
2019-05-21T10:26:27.931Z,33.90
2019-05-21T10:28:58.428Z,34.90
2019-05-21T10:31:28.950Z,35.10
2019-05-21T10:33:59.474Z,34.50
2019-05-21T10:36:30.521Z,34.00
2019-05-21T10:39:00.943Z,34.90
2019-05-21T10:41:31.678Z,34.20
2019-05-21T10:44:02.208Z,34.00
2019-05-21T10:46:32.845Z,32.80
2019-05-21T10:49:03.268Z,32.60
2019-05-21T10:51:34.875Z,31.80
2019-05-21T10:54:06.419Z,32.10
2019-05-21T10:56:47.553Z,33.40
2019-05-21T10:59:09.059Z,34.40
2019-05-21T11:01:47.444Z,35.00
2019-05-21T11:04:49.042Z,36.10
2019-05-21T11:07:20.743Z,35.50
2019-05-21T11:09:51.228Z,33.80
2019-05-21T11:12:21.880Z,33.80
2019-05-21T11:14:52.284Z,34.10
2019-05-21T11:17:22.963Z,34.00
2019-05-21T11:19:53.445Z,34.20
2019-05-21T11:22:23.914Z,34.60
2019-05-21T11:24:54.442Z,33.80
2019-05-21T11:27:24.974Z,34.60
2019-05-21T11:29:55.463Z,35.80
2019-05-21T11:32:25.886Z,35.40
2019-05-21T11:34:56.316Z,36.00
2019-05-21T11:37:26.744Z,37.10
2019-05-21T11:39:57.168Z,36.80
2019-05-21T11:42:27.698Z,37.90
2019-05-21T11:44:58.114Z,38.90
2019-05-21T11:47:28.554Z,39.50
2019-05-21T11:50:01.026Z,36.30
2019-05-21T11:52:31.453Z,36.00
2019-05-21T11:55:29.315Z,36.70
2019-05-21T11:57:59.819Z,38.30
2019-05-21T12:00:30.797Z,40.00
2019-05-21T12:03:01.213Z,39.70
2019-05-21T12:05:31.645Z,37.10
2019-05-21T12:08:02.640Z,36.90
2019-05-21T12:10:33.105Z,36.80
2019-05-21T12:13:03.563Z,36.10
2019-05-21T12:15:33.974Z,37.50
2019-05-21T12:18:04.389Z,37.60
2019-05-21T12:20:37.187Z,38.00
2019-05-21T12:23:07.100Z,39.20
2019-05-21T12:25:37.736Z,38.50
2019-05-21T12:28:11.118Z,39.40
2019-05-21T12:30:40.518Z,40.50
2019-05-21T12:33:10.954Z,41.70
2019-05-21T12:35:41.386Z,42.50
2019-05-21T12:38:11.795Z,43.10
2019-05-21T12:40:42.235Z,42.80
2019-05-21T12:43:12.658Z,41.70
2019-05-21T12:45:43.086Z,42.00
2019-05-21T12:48:13.514Z,41.50
2019-05-21T12:50:43.949Z,41.80
2019-05-21T12:53:16.507Z,42.70
2019-05-21T12:55:46.647Z,43.30
2019-05-21T12:58:17.439Z,44.00
2019-05-21T13:00:48.048Z,43.90
2019-05-21T13:03:18.531Z,41.80
2019-05-21T13:05:51.852Z,42.00
2019-05-21T13:08:25.746Z,41.80
2019-05-21T13:10:56.263Z,42.10
2019-05-21T13:13:26.693Z,42.60
2019-05-21T13:15:57.121Z,42.50
2019-05-21T13:18:27.546Z,42.70
2019-05-21T13:20:57.972Z,42.50
2019-05-21T13:23:28.502Z,41.80
2019-05-21T13:25:59.079Z,40.30
2019-05-21T13:28:29.606Z,39.40
2019-05-21T13:31:00.243Z,40.20
2019-05-21T13:33:30.743Z,39.80
2019-05-21T13:36:01.355Z,39.60
2019-05-21T13:38:31.780Z,39.10
2019-05-21T13:41:03.360Z,39.90
2019-05-21T13:43:33.751Z,40.20
2019-05-21T13:46:04.380Z,40.70
2019-05-21T13:48:34.819Z,40.60
2019-05-21T13:51:19.244Z,40.20
2019-05-21T13:53:49.720Z,39.70
2019-05-21T13:56:20.120Z,38.70
2019-05-21T13:58:50.963Z,39.00
2019-05-21T14:01:38.747Z,39.90
2019-05-21T14:03:59.626Z,40.10
2019-05-21T14:06:30.020Z,39.20
2019-05-21T14:09:00.460Z,39.50
2019-05-21T14:11:31.284Z,39.80
2019-05-21T14:14:01.933Z,40.10
2019-05-21T14:16:34.773Z,39.30
2019-05-21T14:19:04.459Z,39.30
2019-05-21T14:21:35.962Z,37.40
2019-05-21T14:24:06.498Z,36.70
2019-05-21T14:26:37.119Z,36.60
2019-05-21T14:29:07.750Z,35.50
2019-05-21T14:31:38.245Z,35.70
2019-05-21T14:34:16.400Z,36.70
2019-05-21T14:36:47.031Z,37.70
2019-05-21T14:39:18.727Z,37.80
2019-05-21T14:41:51.166Z,37.40
2019-05-21T14:44:21.795Z,36.30
2019-05-21T14:46:52.322Z,36.50
2019-05-21T14:49:23.029Z,36.80
2019-05-21T14:51:53.474Z,37.20
2019-05-21T14:54:27.043Z,37.70
2019-05-21T14:56:55.979Z,37.60
2019-05-21T14:59:26.609Z,37.30
2019-05-21T15:01:57.242Z,37.10
2019-05-21T15:04:28.045Z,37.30
2019-05-21T15:06:58.612Z,37.10
2019-05-21T15:09:29.036Z,37.00
2019-05-21T15:11:59.462Z,36.70
2019-05-21T15:14:29.905Z,35.80
2019-05-21T15:17:00.305Z,35.00
2019-05-21T15:19:30.730Z,35.10
2019-05-21T15:22:01.339Z,34.30
2019-05-21T15:24:33.555Z,33.00
2019-05-21T15:27:04.040Z,32.40
2019-05-21T15:29:34.747Z,31.60
2019-05-21T15:32:05.230Z,30.60
2019-05-21T15:34:35.710Z,29.30
2019-05-21T15:37:06.433Z,28.20
2019-05-21T15:39:37.022Z,27.30
2019-05-21T15:42:07.630Z,26.50
2019-05-21T15:44:38.432Z,26.00
2019-05-21T15:47:08.919Z,25.50
2019-05-21T15:49:39.454Z,25.10
2019-05-21T15:52:09.980Z,24.70
2019-05-21T15:54:40.492Z,24.50
2019-05-21T15:57:11.145Z,24.00
2019-05-21T15:59:41.627Z,23.40
2019-05-21T16:02:12.098Z,22.90
2019-05-21T16:04:42.522Z,22.50
2019-05-21T16:07:13.099Z,22.40
2019-05-21T16:09:43.580Z,21.70
2019-05-21T16:12:14.435Z,21.60
2019-05-21T16:14:44.842Z,21.70
2019-05-21T16:17:15.272Z,21.50
2019-05-21T16:19:45.697Z,21.30
2019-05-21T16:22:16.124Z,21.20
2019-05-21T16:24:46.551Z,21.20
2019-05-21T16:27:17.024Z,21.00
2019-05-21T16:29:48.132Z,20.90
2019-05-21T16:32:19.086Z,20.80
2019-05-21T16:34:49.577Z,20.70
2019-05-21T16:37:20.476Z,20.50
2019-05-21T16:39:50.956Z,20.30
2019-05-21T16:42:21.489Z,20.20
2019-05-21T16:44:51.913Z,19.90
2019-05-21T16:47:22.544Z,19.80
2019-05-21T16:49:53.998Z,19.70
2019-05-21T16:52:24.432Z,19.70
2019-05-21T16:54:56.086Z,19.70
2019-05-21T16:57:26.512Z,19.50
2019-05-21T16:59:57.203Z,19.40
2019-05-21T17:02:27.768Z,19.30
2019-05-21T17:04:58.195Z,19.30
2019-05-21T17:07:28.631Z,19.40
2019-05-21T17:09:59.303Z,19.30
2019-05-21T17:12:29.966Z,19.20
2019-05-21T17:15:00.415Z,19.00
2019-05-21T17:17:31.019Z,18.90
2019-05-21T17:20:01.473Z,18.70
2019-05-21T17:22:31.900Z,18.50
2019-05-21T17:25:02.555Z,18.50
2019-05-21T17:27:33.296Z,18.50
2019-05-21T17:30:04.071Z,18.30
2019-05-21T17:32:37.515Z,18.30
2019-05-21T17:35:08.338Z,18.20
2019-05-21T17:37:38.754Z,18.10
2019-05-21T17:40:09.559Z,18.20
2019-05-21T17:42:40.082Z,18.10
2019-05-21T17:45:11.384Z,18.00
2019-05-21T17:47:43.039Z,17.80
2019-05-21T17:50:13.770Z,17.70
2019-05-21T17:52:44.194Z,17.50
2019-05-21T17:55:15.746Z,17.50
2019-05-21T17:57:46.582Z,17.50
2019-05-21T18:00:19.779Z,17.40
2019-05-21T18:02:51.523Z,17.20
2019-05-21T18:05:22.051Z,17.10
2019-05-21T18:07:52.590Z,17.10
2019-05-21T18:10:23.022Z,17.10
2019-05-21T18:12:53.913Z,17.00
2019-05-21T18:15:24.691Z,16.90
2019-05-21T18:17:55.219Z,16.70
2019-05-21T18:20:25.851Z,16.60
2019-05-21T18:22:56.485Z,16.60
2019-05-21T18:25:27.114Z,16.50
2019-05-21T18:27:57.792Z,16.40
2019-05-21T18:30:28.783Z,16.30
2019-05-21T18:33:00.924Z,16.40
2019-05-21T18:35:31.760Z,16.20
2019-05-21T18:38:02.326Z,16.10
2019-05-21T18:40:32.955Z,16.10
2019-05-21T18:43:03.435Z,16.00
2019-05-21T18:45:34.015Z,15.90
2019-05-21T18:48:04.441Z,15.80
2019-05-21T18:50:37.146Z,15.70
2019-05-21T18:53:07.957Z,15.60
2019-05-21T18:55:38.388Z,15.50
2019-05-21T18:58:08.811Z,15.40
2019-05-21T19:00:40.625Z,15.30
2019-05-21T19:03:11.406Z,15.20
2019-05-21T19:05:41.831Z,15.20
2019-05-21T19:08:12.375Z,15.10
2019-05-21T19:10:43.198Z,15.00
2019-05-21T19:13:14.622Z,14.80
2019-05-21T19:15:45.487Z,14.60
2019-05-21T19:18:16.038Z,14.50
2019-05-21T19:20:49.838Z,14.40
2019-05-21T19:23:18.916Z,14.20
2019-05-21T19:25:49.342Z,14.20
2019-05-21T19:28:19.818Z,14.20
2019-05-21T19:30:51.266Z,14.10
2019-05-21T19:33:21.856Z,14.10
2019-05-21T19:35:52.281Z,14.00
2019-05-21T19:38:22.721Z,13.90
2019-05-21T19:40:53.254Z,13.80
2019-05-21T19:43:23.910Z,13.70
2019-05-21T19:45:54.810Z,13.60
2019-05-21T19:48:25.236Z,13.50
2019-05-21T19:51:00.117Z,13.50
2019-05-21T19:53:28.911Z,13.40
2019-05-21T19:55:59.688Z,13.30
2019-05-21T19:58:30.217Z,13.20
2019-05-21T20:01:01.261Z,13.10
2019-05-21T20:03:31.790Z,13.10
2019-05-21T20:06:02.421Z,13.00
2019-05-21T20:08:33.054Z,13.00
2019-05-21T20:11:03.993Z,12.90
2019-05-21T20:13:35.765Z,12.80
2019-05-21T20:16:06.599Z,12.70
2019-05-21T20:18:37.368Z,12.70
2019-05-21T20:21:09.079Z,12.60
2019-05-21T20:23:40.223Z,12.60
2019-05-21T20:26:15.257Z,12.50
2019-05-21T20:28:46.981Z,12.50
2019-05-21T20:31:18.018Z,12.50
2019-05-21T20:33:50.227Z,12.50
2019-05-21T20:36:21.795Z,12.50
2019-05-21T20:38:52.781Z,12.40
2019-05-21T20:41:24.284Z,12.50
2019-05-21T20:43:59.159Z,12.40
2019-05-21T20:46:28.577Z,12.40
2019-05-21T20:48:59.495Z,12.30
2019-05-21T20:51:31.275Z,12.20
2019-05-21T20:54:02.344Z,12.20
2019-05-21T20:56:33.915Z,12.10
2019-05-21T20:59:04.839Z,12.10
2019-05-21T21:01:36.438Z,12.10
2019-05-21T21:04:07.535Z,12.00
2019-05-21T21:06:39.572Z,11.90
2019-05-21T21:09:12.415Z,11.90
2019-05-21T21:11:43.347Z,11.90
2019-05-21T21:14:18.390Z,11.90
2019-05-21T21:16:48.805Z,12.00
2019-05-21T21:19:19.379Z,12.00
2019-05-21T21:21:49.932Z,12.00
2019-05-21T21:24:20.378Z,12.00
2019-05-21T21:26:51.213Z,12.10
2019-05-21T21:29:21.807Z,12.00
2019-05-21T21:31:52.470Z,12.00
2019-05-21T21:34:23.389Z,11.90
2019-05-21T21:41:53.974Z,11.90
2019-05-21T21:44:33.678Z,11.70
2019-05-21T21:46:56.878Z,11.70
2019-05-21T21:49:29.051Z,11.60
2019-05-21T21:52:01.302Z,11.60
2019-05-21T21:54:31.945Z,11.50
2019-05-21T21:57:02.372Z,11.40
2019-05-21T21:59:32.802Z,11.30
2019-05-21T22:02:16.237Z,11.30
2019-05-21T22:04:46.966Z,11.30
2019-05-21T22:07:17.394Z,11.30
2019-05-21T22:09:48.068Z,11.30
2019-05-21T22:12:18.709Z,11.20
2019-05-21T22:14:55.737Z,11.20
2019-05-21T22:17:26.647Z,11.20
2019-05-21T22:19:57.835Z,11.10
2019-05-21T22:22:29.068Z,11.10
2019-05-21T22:24:59.495Z,11.00
2019-05-21T22:27:30.230Z,11.00
2019-05-21T22:30:02.027Z,11.00
2019-05-21T22:32:32.618Z,11.00
2019-05-21T22:35:03.050Z,11.00
2019-05-21T22:37:33.544Z,11.00
2019-05-21T22:40:04.308Z,11.00
2019-05-21T22:42:35.349Z,11.00
2019-05-21T22:45:08.420Z,11.00
2019-05-21T22:47:38.662Z,10.90
2019-05-21T22:50:09.652Z,10.80
2019-05-21T22:52:40.130Z,10.70
2019-05-21T22:55:10.709Z,10.60
2019-05-21T23:10:12.507Z,10.60
2019-05-21T23:15:24.506Z,10.50
2019-05-21T23:17:45.365Z,10.40
2019-05-21T23:20:16.362Z,10.40
2019-05-21T23:22:49.170Z,10.40
2019-05-21T23:30:20.578Z,10.30
2019-05-21T23:32:51.724Z,10.10
2019-05-21T23:35:22.714Z,10.10
2019-05-21T23:37:55.622Z,10.10
2019-05-21T23:40:26.203Z,10.10
2019-05-21T23:42:56.657Z,10.10
2019-05-21T23:45:27.390Z,10.00
2019-05-21T23:47:57.818Z,10.00
2019-05-21T23:50:30.214Z,10.00
2019-05-21T23:53:02.507Z,9.90
2019-05-21T23:55:33.194Z,9.90
2019-05-21T23:58:04.357Z,9.90
